Flight Track Log - Related Links

Times and Time Zones

All times are in EDT time to prevent confusion due to time zone crossing. See the CNK432 flight status page for this flight to view local times or setup timezone preferences in your user account.


Time Position Orientation Groundspeed Altitude Reporting Facility
EDT Latitude Longitude Course Direction KTS MPH feet Rate Location/Type
Wed 03:45:02 PM 56.6333 -111.3167 201° Southwest 140 161 3,200  Level Edmonton Center
Wed 03:46:02 PM 56.5833 -111.3500 200° South 150 173 5,200 2,000 Climbing Edmonton Center
Wed 03:47:02 PM 56.5500 -111.3667 195° South 150 173 7,200 1,850 Climbing Edmonton Center
Wed 03:48:02 PM 56.5167 -111.4000 209° Southwest 160 184 8,900 1,800 Climbing Edmonton Center
Wed 03:49:02 PM 56.4667 -111.4500 209° Southwest 170 196 10,800 1,800 Climbing Edmonton Center
Wed 03:50:00 PM 56.2079 -111.5646 201° Southwest  Level FlightAware Approximate
Wed 03:50:02 PM 56.4333 -111.4667 195° South 170 196 12,500  Level Edmonton Center
Wed 03:51:02 PM 56.3667 -111.5167 203° Southwest 180 207 14,300 1,650 Climbing Edmonton Center
Wed 03:52:02 PM 56.3167 -111.5500 200° South 190 219 15,800 1,500 Climbing Edmonton Center
Wed 03:53:02 PM 56.2667 -111.6000 209° Southwest 200 230 17,300 1,500 Climbing Edmonton Center
Wed 03:54:02 PM 56.2167 -111.6167 191° South 210 242 18,800 1,400 Climbing Edmonton Center
Wed 03:55:02 PM 56.1667 -111.6667 209° Southwest 210 242 20,100 1,150 Climbing Edmonton Center
Wed 03:56:02 PM 56.1000 -111.7167 203° Southwest 220 253 21,100 1,000 Climbing Edmonton Center
Wed 03:57:02 PM 56.0333 -111.7667 203° Southwest 220 253 22,100 900 Climbing Edmonton Center
Wed 03:58:02 PM 55.9833 -111.7833 191° South 230 265 22,900 850 Climbing Edmonton Center
Wed 03:59:02 PM 55.9333 -111.8333 209° Southwest 230 265 23,800 600 Climbing Edmonton Center
Wed 04:00:02 PM 55.8667 -111.8833 203° Southwest 250 288 24,100 150 Climbing Edmonton Center
Wed 04:01:02 PM 55.7833 -111.9667 209° Southwest 260 299 24,100  Level Edmonton Center
Wed 04:02:02 PM 55.7167 -112.0167 203° Southwest 290 334 24,100  Level Edmonton Center
Wed 04:03:02 PM 55.6500 -112.0667 203° Southwest 300 345 24,100 -50 Level Edmonton Center
Wed 04:04:02 PM 55.5500 -112.1333 201° Southwest 300 345 24,000  Descending Edmonton Center
Wed 04:05:02 PM 55.4833 -112.1833 203° Southwest 300 345 24,100  Climbing Edmonton Center
Wed 04:06:02 PM 55.4000 -112.2167 193° South 300 345 24,000 -50 Descending Edmonton Center
Wed 04:07:02 PM 55.3167 -112.3000 210° Southwest 300 345 24,000 50 Level Edmonton Center
Wed 04:08:02 PM 55.2333 -112.3500 199° South 300 345 24,100 50 Climbing Edmonton Center
Wed 04:09:02 PM 55.1667 -112.3833 196° South 300 345 24,100  Level Edmonton Center
Wed 04:10:02 PM 55.1000 -112.4667 216° Southwest 300 345 24,100 -50 Level Edmonton Center
Wed 04:11:02 PM 55.0000 -112.5000 191° South 300 345 24,000  Descending Edmonton Center
Wed 04:12:02 PM 54.9333 -112.5500 203° Southwest 300 345 24,100  Climbing Edmonton Center
Wed 04:13:02 PM 54.8667 -112.6333 216° Southwest 300 345 24,000  Descending Edmonton Center
Wed 04:14:02 PM 54.7667 -112.6667 191° South 290 334 24,100 50 Climbing Edmonton Center
Wed 04:15:02 PM 54.7000 -112.7500 216° Southwest 290 334 24,100 -50 Level Edmonton Center
Wed 04:16:02 PM 54.6333 -112.7833 196° South 300 345 24,000 -50 Descending Edmonton Center
Wed 04:17:02 PM 54.5500 -112.8667 210° Southwest 300 345 24,000  Level Edmonton Center
Wed 04:18:02 PM 54.4833 -112.9000 196° South 300 345 24,000 -650 Level Edmonton Center
Wed 04:19:02 PM 54.4000 -112.9667 205° Southwest 300 345 22,700 -1,300 Descending Edmonton Center
Wed 04:20:02 PM 54.3167 -113.0167 199° South 300 345 21,400 -1,400 Descending Edmonton Center
Wed 04:21:02 PM 54.2500 -113.0833 210° Southwest 300 345 19,900 -1,600 Descending Edmonton Center
Wed 04:22:02 PM 54.1667 -113.1333 199° South 300 345 18,200 -1,600 Descending Edmonton Center
Wed 04:23:02 PM 54.0833 -113.2000 205° Southwest 300 345 16,700 -1,500 Descending Edmonton Center
Wed 04:24:02 PM 54.0167 -113.2667 210° Southwest 300 345 15,200 -1,600 Descending Edmonton Center
Wed 04:25:02 PM 53.9500 -113.3167 204° Southwest 300 345 13,500 -1,600 Descending Edmonton Center
Wed 04:26:02 PM 53.8500 -113.3833 201° Southwest 290 334 12,000 -1,350 Descending Edmonton Center
Wed 04:27:02 PM 53.7833 -113.4333 204° Southwest 290 334 10,800 -1,250 Descending Edmonton Center
Wed 04:28:02 PM 53.7167 -113.4667 196° South 280 322 9,500 -1,200 Descending Edmonton Center
Wed 04:29:02 PM 53.6500 -113.5500 217° Southwest 260 299 8,400 -700 Descending Edmonton Center
Wed 04:30:02 PM 53.5833 -113.5833 197° South 250 288 8,100 -200 Descending Edmonton Center
Wed 04:31:02 PM 53.5167 -113.6333 204° Southwest 250 288 8,000 -50 Descending Edmonton Center
Wed 04:32:02 PM 53.4667 -113.6833 211° Southwest 250 288 8,000  Level Edmonton Center
Wed 04:33:02 PM 53.3833 -113.7167 193° South 250 288 8,000  Level Edmonton Center
Wed 04:34:02 PM 53.3333 -113.7667 211° Southwest 250 288 8,000 -600 Level Edmonton Center
Wed 04:35:02 PM 53.2667 -113.8000 197° South 240 276 6,800 -1,200 Descending Edmonton Center
Wed 04:36:02 PM 53.2167 -113.8167 191° South 220 253 5,600 -900 Descending Edmonton Center
Wed 04:37:02 PM 53.1833 -113.7500 130° Southeast 210 242 5,000 -550 Descending Edmonton Center
Wed 04:38:02 PM 53.2167 -113.7167 31° Northeast 180 207 4,500 -750 Descending Edmonton Center
Wed 04:39:02 PM 53.2500 -113.6667 42° Northeast 170 196 3,500 -1,100 Descending Edmonton Center
Wed 04:40:02 PM 53.2833 -113.6000 50° Northeast 130 150 2,300 -1,200 Descending Edmonton Center

Login

Don't have an account? Register now (free) for customized features, flight alerts, and more!